sensor_id;sensor_type;location;lat;lon;timestamp;temperature;humidity
22966;DHT22;11649;48.090;9.754;2023-09-12T00:00:51;17.30;99.90
22966;DHT22;11649;48.090;9.754;2023-09-12T00:03:20;17.30;99.90
22966;DHT22;11649;48.090;9.754;2023-09-12T00:05:52;17.20;99.90
22966;DHT22;11649;48.090;9.754;2023-09-12T00:08:19;17.20;99.90
22966;DHT22;11649;48.090;9.754;2023-09-12T00:10:46;17.30;99.90
22966;DHT22;11649;48.090;9.754;2023-09-12T00:13:13;17.40;99.90
22966;DHT22;11649;48.090;9.754;2023-09-12T00:15:39;17.40;99.90
22966;DHT22;11649;48.090;9.754;2023-09-12T00:18:06;17.30;99.90
22966;DHT22;11649;48.090;9.754;2023-09-12T00:20:34;17.20;99.90
22966;DHT22;11649;48.090;9.754;2023-09-12T00:23:01;17.20;99.90
22966;DHT22;11649;48.090;9.754;2023-09-12T00:25:28;17.20;99.90
22966;DHT22;11649;48.090;9.754;2023-09-12T00:27:54;17.10;99.90
22966;DHT22;11649;48.090;9.754;2023-09-12T00:30:21;17.10;99.90
22966;DHT22;11649;48.090;9.754;2023-09-12T00:32:48;17.10;99.90
22966;DHT22;11649;48.090;9.754;2023-09-12T00:35:15;17.10;99.90
22966;DHT22;11649;48.090;9.754;2023-09-12T00:37:42;17.10;99.90
22966;DHT22;11649;48.090;9.754;2023-09-12T00:40:09;17.10;99.90
22966;DHT22;11649;48.090;9.754;2023-09-12T00:42:35;17.10;99.90
22966;DHT22;11649;48.090;9.754;2023-09-12T00:45:02;17.10;99.90
22966;DHT22;11649;48.090;9.754;2023-09-12T00:47:29;17.10;99.90
22966;DHT22;11649;48.090;9.754;2023-09-12T00:49:58;17.20;99.90
22966;DHT22;11649;48.090;9.754;2023-09-12T00:52:28;17.20;99.90
22966;DHT22;11649;48.090;9.754;2023-09-12T00:54:55;17.10;99.90
22966;DHT22;11649;48.090;9.754;2023-09-12T00:57:22;17.00;99.90
22966;DHT22;11649;48.090;9.754;2023-09-12T00:59:51;16.90;99.90
22966;DHT22;11649;48.090;9.754;2023-09-12T01:02:19;16.80;99.90
22966;DHT22;11649;48.090;9.754;2023-09-12T01:04:46;16.80;99.90
22966;DHT22;11649;48.090;9.754;2023-09-12T01:07:14;16.80;99.90
22966;DHT22;11649;48.090;9.754;2023-09-12T01:09:41;16.90;99.90
22966;DHT22;11649;48.090;9.754;2023-09-12T01:12:08;17.00;99.90
22966;DHT22;11649;48.090;9.754;2023-09-12T01:14:35;17.00;99.90
22966;DHT22;11649;48.090;9.754;2023-09-12T01:17:02;17.00;99.90
22966;DHT22;11649;48.090;9.754;2023-09-12T01:19:29;16.90;99.90
22966;DHT22;11649;48.090;9.754;2023-09-12T01:27:28;16.90;99.90
22966;DHT22;11649;48.090;9.754;2023-09-12T01:30:02;16.80;99.90
22966;DHT22;11649;48.090;9.754;2023-09-12T01:32:34;16.80;99.90
22966;DHT22;11649;48.090;9.754;2023-09-12T01:35:02;16.80;99.90
22966;DHT22;11649;48.090;9.754;2023-09-12T01:37:32;16.80;99.90
22966;DHT22;11649;48.090;9.754;2023-09-12T01:39:59;16.90;99.90
22966;DHT22;11649;48.090;9.754;2023-09-12T01:42:31;17.00;99.90
22966;DHT22;11649;48.090;9.754;2023-09-12T01:45:03;17.00;99.90
22966;DHT22;11649;48.090;9.754;2023-09-12T01:47:30;16.90;99.90
22966;DHT22;11649;48.090;9.754;2023-09-12T01:49:58;16.80;99.90
22966;DHT22;11649;48.090;9.754;2023-09-12T01:52:27;16.60;99.90
22966;DHT22;11649;48.090;9.754;2023-09-12T01:54:55;16.60;99.90
22966;DHT22;11649;48.090;9.754;2023-09-12T01:57:23;16.50;99.90
22966;DHT22;11649;48.090;9.754;2023-09-12T01:59:50;16.40;99.90
22966;DHT22;11649;48.090;9.754;2023-09-12T02:02:17;16.40;99.90
22966;DHT22;11649;48.090;9.754;2023-09-12T02:07:38;16.40;99.90
22966;DHT22;11649;48.090;9.754;2023-09-12T02:10:06;16.40;99.90
22966;DHT22;11649;48.090;9.754;2023-09-12T02:12:33;16.40;99.90
22966;DHT22;11649;48.090;9.754;2023-09-12T02:15:00;16.40;99.90
22966;DHT22;11649;48.090;9.754;2023-09-12T02:17:27;16.40;99.90
22966;DHT22;11649;48.090;9.754;2023-09-12T02:19:53;16.40;99.90
22966;DHT22;11649;48.090;9.754;2023-09-12T02:22:20;16.50;99.90
22966;DHT22;11649;48.090;9.754;2023-09-12T02:24:47;16.50;99.90
22966;DHT22;11649;48.090;9.754;2023-09-12T02:27:14;16.50;99.90
22966;DHT22;11649;48.090;9.754;2023-09-12T02:29:41;16.40;99.90
22966;DHT22;11649;48.090;9.754;2023-09-12T02:32:09;16.30;99.90
22966;DHT22;11649;48.090;9.754;2023-09-12T02:34:36;16.30;99.90
22966;DHT22;11649;48.090;9.754;2023-09-12T02:37:03;16.20;99.90
22966;DHT22;11649;48.090;9.754;2023-09-12T02:39:29;16.20;99.90
22966;DHT22;11649;48.090;9.754;2023-09-12T02:41:56;16.20;99.90
22966;DHT22;11649;48.090;9.754;2023-09-12T02:44:23;16.20;99.90
22966;DHT22;11649;48.090;9.754;2023-09-12T02:46:50;16.30;99.90
22966;DHT22;11649;48.090;9.754;2023-09-12T02:49:17;16.20;99.90
22966;DHT22;11649;48.090;9.754;2023-09-12T02:51:45;16.20;99.90
22966;DHT22;11649;48.090;9.754;2023-09-12T02:54:12;16.20;99.90
22966;DHT22;11649;48.090;9.754;2023-09-12T02:56:39;16.10;99.90
22966;DHT22;11649;48.090;9.754;2023-09-12T02:59:06;16.10;99.90
22966;DHT22;11649;48.090;9.754;2023-09-12T03:01:33;16.10;99.90
22966;DHT22;11649;48.090;9.754;2023-09-12T03:04:00;16.00;99.90
22966;DHT22;11649;48.090;9.754;2023-09-12T03:06:28;16.00;99.90
22966;DHT22;11649;48.090;9.754;2023-09-12T03:08:55;16.00;99.90
22966;DHT22;11649;48.090;9.754;2023-09-12T03:11:22;16.10;99.90
22966;DHT22;11649;48.090;9.754;2023-09-12T03:13:49;16.00;99.90
22966;DHT22;11649;48.090;9.754;2023-09-12T03:16:16;16.00;99.90
22966;DHT22;11649;48.090;9.754;2023-09-12T03:18:43;16.00;99.90
22966;DHT22;11649;48.090;9.754;2023-09-12T03:21:10;16.10;99.90
22966;DHT22;11649;48.090;9.754;2023-09-12T03:23:37;16.20;99.90
22966;DHT22;11649;48.090;9.754;2023-09-12T03:26:04;16.10;99.90
22966;DHT22;11649;48.090;9.754;2023-09-12T03:28:32;16.00;99.90
22966;DHT22;11649;48.090;9.754;2023-09-12T03:31:10;16.00;99.90
22966;DHT22;11649;48.090;9.754;2023-09-12T03:33:41;15.90;99.90
22966;DHT22;11649;48.090;9.754;2023-09-12T03:36:09;15.90;99.90
22966;DHT22;11649;48.090;9.754;2023-09-12T03:38:36;15.80;99.90
22966;DHT22;11649;48.090;9.754;2023-09-12T03:41:03;15.70;99.90
22966;DHT22;11649;48.090;9.754;2023-09-12T03:43:30;15.70;99.90
22966;DHT22;11649;48.090;9.754;2023-09-12T03:45:57;15.70;99.90
22966;DHT22;11649;48.090;9.754;2023-09-12T03:48:24;15.60;99.90
22966;DHT22;11649;48.090;9.754;2023-09-12T03:50:51;15.60;99.90
22966;DHT22;11649;48.090;9.754;2023-09-12T03:53:18;15.60;99.90
22966;DHT22;11649;48.090;9.754;2023-09-12T03:55:45;15.60;99.90
22966;DHT22;11649;48.090;9.754;2023-09-12T03:58:11;15.50;99.90
22966;DHT22;11649;48.090;9.754;2023-09-12T04:00:38;15.40;99.90
22966;DHT22;11649;48.090;9.754;2023-09-12T04:03:05;15.50;99.90
22966;DHT22;11649;48.090;9.754;2023-09-12T04:05:32;15.50;99.90
22966;DHT22;11649;48.090;9.754;2023-09-12T04:07:59;15.50;99.90
22966;DHT22;11649;48.090;9.754;2023-09-12T04:10:25;15.60;99.90
22966;DHT22;11649;48.090;9.754;2023-09-12T04:12:52;15.60;99.90
22966;DHT22;11649;48.090;9.754;2023-09-12T04:15:19;15.60;99.90
22966;DHT22;11649;48.090;9.754;2023-09-12T04:17:46;15.50;99.90
22966;DHT22;11649;48.090;9.754;2023-09-12T04:20:13;15.50;99.90
22966;DHT22;11649;48.090;9.754;2023-09-12T04:22:42;15.50;99.90
22966;DHT22;11649;48.090;9.754;2023-09-12T04:25:09;15.50;99.90
22966;DHT22;11649;48.090;9.754;2023-09-12T04:27:36;15.60;99.90
22966;DHT22;11649;48.090;9.754;2023-09-12T04:30:03;15.60;99.90
22966;DHT22;11649;48.090;9.754;2023-09-12T04:32:30;15.50;99.90
22966;DHT22;11649;48.090;9.754;2023-09-12T04:34:57;15.60;99.90
22966;DHT22;11649;48.090;9.754;2023-09-12T04:37:24;15.60;99.90
22966;DHT22;11649;48.090;9.754;2023-09-12T04:39:51;15.60;99.90
22966;DHT22;11649;48.090;9.754;2023-09-12T04:42:18;15.60;99.90
22966;DHT22;11649;48.090;9.754;2023-09-12T04:44:45;15.60;99.90
22966;DHT22;11649;48.090;9.754;2023-09-12T04:47:12;15.60;99.90
22966;DHT22;11649;48.090;9.754;2023-09-12T04:49:39;15.60;99.90
22966;DHT22;11649;48.090;9.754;2023-09-12T04:52:06;15.50;99.90
22966;DHT22;11649;48.090;9.754;2023-09-12T04:54:33;15.40;99.90
22966;DHT22;11649;48.090;9.754;2023-09-12T04:57:00;15.40;99.90
22966;DHT22;11649;48.090;9.754;2023-09-12T04:59:27;15.40;99.90
22966;DHT22;11649;48.090;9.754;2023-09-12T05:01:54;15.40;99.90
22966;DHT22;11649;48.090;9.754;2023-09-12T05:04:20;15.40;99.90
22966;DHT22;11649;48.090;9.754;2023-09-12T05:06:47;15.40;99.90
22966;DHT22;11649;48.090;9.754;2023-09-12T05:09:14;15.40;99.90
22966;DHT22;11649;48.090;9.754;2023-09-12T05:11:41;15.40;99.90
22966;DHT22;11649;48.090;9.754;2023-09-12T05:14:09;15.40;99.90
22966;DHT22;11649;48.090;9.754;2023-09-12T05:16:36;15.40;99.90
22966;DHT22;11649;48.090;9.754;2023-09-12T05:19:02;15.40;99.90
22966;DHT22;11649;48.090;9.754;2023-09-12T05:21:30;15.40;99.90
22966;DHT22;11649;48.090;9.754;2023-09-12T05:23:57;15.40;99.90
22966;DHT22;11649;48.090;9.754;2023-09-12T05:26:24;15.50;99.90
22966;DHT22;11649;48.090;9.754;2023-09-12T05:28:51;15.50;99.90
22966;DHT22;11649;48.090;9.754;2023-09-12T05:31:17;15.50;99.90
22966;DHT22;11649;48.090;9.754;2023-09-12T05:33:44;15.60;99.90
22966;DHT22;11649;48.090;9.754;2023-09-12T05:36:12;15.60;99.90
22966;DHT22;11649;48.090;9.754;2023-09-12T05:38:39;15.70;99.90
22966;DHT22;11649;48.090;9.754;2023-09-12T05:41:06;15.70;99.90
22966;DHT22;11649;48.090;9.754;2023-09-12T05:43:33;15.60;99.90
22966;DHT22;11649;48.090;9.754;2023-09-12T05:46:00;15.60;99.90
22966;DHT22;11649;48.090;9.754;2023-09-12T05:48:27;15.60;99.90
22966;DHT22;11649;48.090;9.754;2023-09-12T05:50:53;15.70;99.90
22966;DHT22;11649;48.090;9.754;2023-09-12T05:53:20;15.70;99.90
22966;DHT22;11649;48.090;9.754;2023-09-12T05:55:47;15.80;99.90
22966;DHT22;11649;48.090;9.754;2023-09-12T05:58:14;15.90;99.90
22966;DHT22;11649;48.090;9.754;2023-09-12T06:00:40;15.90;99.90
22966;DHT22;11649;48.090;9.754;2023-09-12T06:03:07;15.90;99.90
22966;DHT22;11649;48.090;9.754;2023-09-12T06:05:35;16.10;99.90
22966;DHT22;11649;48.090;9.754;2023-09-12T06:08:01;16.20;99.90
22966;DHT22;11649;48.090;9.754;2023-09-12T06:10:28;16.20;99.90
22966;DHT22;11649;48.090;9.754;2023-09-12T06:12:55;16.30;99.90
22966;DHT22;11649;48.090;9.754;2023-09-12T06:15:22;16.50;99.90
22966;DHT22;11649;48.090;9.754;2023-09-12T06:17:51;16.50;99.90
22966;DHT22;11649;48.090;9.754;2023-09-12T06:20:18;16.60;99.90
22966;DHT22;11649;48.090;9.754;2023-09-12T06:22:45;16.70;99.90
22966;DHT22;11649;48.090;9.754;2023-09-12T06:25:12;16.90;99.90
22966;DHT22;11649;48.090;9.754;2023-09-12T06:27:38;16.90;99.90
22966;DHT22;11649;48.090;9.754;2023-09-12T06:30:06;17.10;99.90
22966;DHT22;11649;48.090;9.754;2023-09-12T06:32:33;17.20;99.90
22966;DHT22;11649;48.090;9.754;2023-09-12T06:35:00;17.30;99.90
22966;DHT22;11649;48.090;9.754;2023-09-12T06:37:27;17.40;99.90
22966;DHT22;11649;48.090;9.754;2023-09-12T06:39:53;17.50;99.90
22966;DHT22;11649;48.090;9.754;2023-09-12T06:42:20;17.70;99.90
22966;DHT22;11649;48.090;9.754;2023-09-12T06:44:47;17.90;99.90
22966;DHT22;11649;48.090;9.754;2023-09-12T06:47:14;17.90;99.90
22966;DHT22;11649;48.090;9.754;2023-09-12T06:49:41;18.10;99.90
22966;DHT22;11649;48.090;9.754;2023-09-12T06:52:07;18.20;99.90
22966;DHT22;11649;48.090;9.754;2023-09-12T06:54:36;18.30;99.90
22966;DHT22;11649;48.090;9.754;2023-09-12T06:57:03;18.40;99.90
22966;DHT22;11649;48.090;9.754;2023-09-12T06:59:30;18.50;99.90
22966;DHT22;11649;48.090;9.754;2023-09-12T07:01:57;18.50;99.90
22966;DHT22;11649;48.090;9.754;2023-09-12T07:04:24;18.50;99.90
22966;DHT22;11649;48.090;9.754;2023-09-12T07:06:52;18.60;99.90
22966;DHT22;11649;48.090;9.754;2023-09-12T07:09:19;18.80;99.90
22966;DHT22;11649;48.090;9.754;2023-09-12T07:11:47;18.80;99.90
22966;DHT22;11649;48.090;9.754;2023-09-12T07:14:13;18.90;99.90
22966;DHT22;11649;48.090;9.754;2023-09-12T07:16:41;19.00;99.90
22966;DHT22;11649;48.090;9.754;2023-09-12T07:19:08;19.00;99.90
22966;DHT22;11649;48.090;9.754;2023-09-12T07:21:36;19.00;99.90
22966;DHT22;11649;48.090;9.754;2023-09-12T07:24:03;19.10;99.90
22966;DHT22;11649;48.090;9.754;2023-09-12T07:26:31;19.10;99.90
22966;DHT22;11649;48.090;9.754;2023-09-12T07:28:58;19.20;99.90
22966;DHT22;11649;48.090;9.754;2023-09-12T07:31:29;19.30;99.90
22966;DHT22;11649;48.090;9.754;2023-09-12T07:33:55;19.40;99.90
22966;DHT22;11649;48.090;9.754;2023-09-12T07:36:22;19.50;99.90
22966;DHT22;11649;48.090;9.754;2023-09-12T07:38:49;19.70;99.90
22966;DHT22;11649;48.090;9.754;2023-09-12T07:41:16;19.70;99.90
22966;DHT22;11649;48.090;9.754;2023-09-12T07:43:43;19.80;99.90
22966;DHT22;11649;48.090;9.754;2023-09-12T07:46:10;19.90;99.90
22966;DHT22;11649;48.090;9.754;2023-09-12T07:48:37;20.00;99.90
22966;DHT22;11649;48.090;9.754;2023-09-12T07:51:16;20.20;99.90
22966;DHT22;11649;48.090;9.754;2023-09-12T07:53:46;20.20;99.90
22966;DHT22;11649;48.090;9.754;2023-09-12T07:56:13;20.30;99.90
22966;DHT22;11649;48.090;9.754;2023-09-12T07:58:40;20.50;99.90
22966;DHT22;11649;48.090;9.754;2023-09-12T08:01:08;20.50;99.90
22966;DHT22;11649;48.090;9.754;2023-09-12T08:03:37;20.60;99.90
22966;DHT22;11649;48.090;9.754;2023-09-12T08:06:05;20.70;99.90
22966;DHT22;11649;48.090;9.754;2023-09-12T08:08:32;20.70;99.90
22966;DHT22;11649;48.090;9.754;2023-09-12T08:10:59;20.80;99.90
22966;DHT22;11649;48.090;9.754;2023-09-12T08:13:27;20.90;99.90
22966;DHT22;11649;48.090;9.754;2023-09-12T08:15:55;20.90;99.90
22966;DHT22;11649;48.090;9.754;2023-09-12T08:18:29;21.00;99.90
22966;DHT22;11649;48.090;9.754;2023-09-12T08:20:56;20.90;99.90
22966;DHT22;11649;48.090;9.754;2023-09-12T08:23:23;21.00;99.90
22966;DHT22;11649;48.090;9.754;2023-09-12T08:25:50;21.00;99.90
22966;DHT22;11649;48.090;9.754;2023-09-12T08:28:17;21.00;99.90
22966;DHT22;11649;48.090;9.754;2023-09-12T08:30:47;21.10;99.90
22966;DHT22;11649;48.090;9.754;2023-09-12T08:33:14;21.20;99.90
22966;DHT22;11649;48.090;9.754;2023-09-12T08:35:41;21.30;99.90
22966;DHT22;11649;48.090;9.754;2023-09-12T08:38:08;21.40;99.90
22966;DHT22;11649;48.090;9.754;2023-09-12T08:40:35;21.40;99.90
22966;DHT22;11649;48.090;9.754;2023-09-12T08:43:02;21.50;99.90
22966;DHT22;11649;48.090;9.754;2023-09-12T08:45:33;21.60;99.90
22966;DHT22;11649;48.090;9.754;2023-09-12T08:48:03;21.70;99.90
22966;DHT22;11649;48.090;9.754;2023-09-12T08:50:31;21.80;99.90
22966;DHT22;11649;48.090;9.754;2023-09-12T08:53:00;21.80;99.90
22966;DHT22;11649;48.090;9.754;2023-09-12T08:55:35;21.90;99.90
22966;DHT22;11649;48.090;9.754;2023-09-12T08:58:04;21.90;99.90
22966;DHT22;11649;48.090;9.754;2023-09-12T09:00:44;22.00;99.90
22966;DHT22;11649;48.090;9.754;2023-09-12T09:03:12;22.10;99.90
22966;DHT22;11649;48.090;9.754;2023-09-12T09:05:57;22.10;99.90
22966;DHT22;11649;48.090;9.754;2023-09-12T09:08:25;22.20;99.90
22966;DHT22;11649;48.090;9.754;2023-09-12T09:10:57;22.30;99.90
22966;DHT22;11649;48.090;9.754;2023-09-12T09:13:25;22.50;99.90
22966;DHT22;11649;48.090;9.754;2023-09-12T09:16:16;22.60;99.90
22966;DHT22;11649;48.090;9.754;2023-09-12T09:18:54;22.60;99.90
22966;DHT22;11649;48.090;9.754;2023-09-12T09:21:26;22.60;99.90
22966;DHT22;11649;48.090;9.754;2023-09-12T09:24:29;22.80;99.90
22966;DHT22;11649;48.090;9.754;2023-09-12T09:26:56;22.90;99.90
22966;DHT22;11649;48.090;9.754;2023-09-12T09:29:27;23.00;99.90
22966;DHT22;11649;48.090;9.754;2023-09-12T09:32:00;23.10;99.90
22966;DHT22;11649;48.090;9.754;2023-09-12T09:34:27;23.20;99.90
22966;DHT22;11649;48.090;9.754;2023-09-12T09:36:56;23.20;99.90
22966;DHT22;11649;48.090;9.754;2023-09-12T09:39:25;23.20;99.90
22966;DHT22;11649;48.090;9.754;2023-09-12T09:41:55;23.30;99.90
22966;DHT22;11649;48.090;9.754;2023-09-12T09:44:23;23.30;99.90
22966;DHT22;11649;48.090;9.754;2023-09-12T09:46:55;23.30;99.90
22966;DHT22;11649;48.090;9.754;2023-09-12T09:49:31;23.40;99.90
22966;DHT22;11649;48.090;9.754;2023-09-12T09:52:03;23.50;99.90
22966;DHT22;11649;48.090;9.754;2023-09-12T09:54:31;23.50;99.90
22966;DHT22;11649;48.090;9.754;2023-09-12T09:56:57;23.70;99.90
22966;DHT22;11649;48.090;9.754;2023-09-12T09:59:26;23.80;99.90
22966;DHT22;11649;48.090;9.754;2023-09-12T10:01:58;23.80;99.90
22966;DHT22;11649;48.090;9.754;2023-09-12T10:04:27;24.00;99.90
22966;DHT22;11649;48.090;9.754;2023-09-12T10:06:58;24.00;99.90
22966;DHT22;11649;48.090;9.754;2023-09-12T10:09:28;23.90;99.90
22966;DHT22;11649;48.090;9.754;2023-09-12T10:11:57;24.00;99.90
22966;DHT22;11649;48.090;9.754;2023-09-12T10:14:26;24.10;99.90
22966;DHT22;11649;48.090;9.754;2023-09-12T10:17:00;24.10;99.90
22966;DHT22;11649;48.090;9.754;2023-09-12T10:19:39;24.20;99.90
22966;DHT22;11649;48.090;9.754;2023-09-12T10:22:24;24.20;99.90
22966;DHT22;11649;48.090;9.754;2023-09-12T10:24:52;24.40;99.90
22966;DHT22;11649;48.090;9.754;2023-09-12T10:27:25;24.50;99.90
22966;DHT22;11649;48.090;9.754;2023-09-12T10:29:52;24.70;98.30
22966;DHT22;11649;48.090;9.754;2023-09-12T10:32:21;24.70;97.80
22966;DHT22;11649;48.090;9.754;2023-09-12T10:34:49;24.80;99.90
22966;DHT22;11649;48.090;9.754;2023-09-12T10:37:16;24.80;99.60
22966;DHT22;11649;48.090;9.754;2023-09-12T10:39:43;24.70;99.20
22966;DHT22;11649;48.090;9.754;2023-09-12T10:42:11;24.70;99.90
22966;DHT22;11649;48.090;9.754;2023-09-12T10:44:39;24.80;97.00
22966;DHT22;11649;48.090;9.754;2023-09-12T10:47:19;24.90;96.10
22966;DHT22;11649;48.090;9.754;2023-09-12T10:49:46;25.00;96.70
22966;DHT22;11649;48.090;9.754;2023-09-12T10:52:27;25.10;95.30
22966;DHT22;11649;48.090;9.754;2023-09-12T10:54:55;25.10;93.40
22966;DHT22;11649;48.090;9.754;2023-09-12T10:57:22;25.20;93.60
22966;DHT22;11649;48.090;9.754;2023-09-12T11:02:49;25.30;94.70
22966;DHT22;11649;48.090;9.754;2023-09-12T11:08:00;25.60;91.20
22966;DHT22;11649;48.090;9.754;2023-09-12T11:10:40;25.50;93.00
22966;DHT22;11649;48.090;9.754;2023-09-12T11:13:17;25.50;90.30
22966;DHT22;11649;48.090;9.754;2023-09-12T11:16:15;25.50;90.40
22966;DHT22;11649;48.090;9.754;2023-09-12T11:22:00;25.50;86.80
22966;DHT22;11649;48.090;9.754;2023-09-12T11:24:43;25.60;81.20
22966;DHT22;11649;48.090;9.754;2023-09-12T11:27:11;25.70;86.00
22966;DHT22;11649;48.090;9.754;2023-09-12T11:29:39;25.80;83.40
22966;DHT22;11649;48.090;9.754;2023-09-12T11:32:07;25.90;83.90
22966;DHT22;11649;48.090;9.754;2023-09-12T11:34:38;26.10;80.50
22966;DHT22;11649;48.090;9.754;2023-09-12T11:37:07;26.20;80.50
22966;DHT22;11649;48.090;9.754;2023-09-12T11:39:39;26.20;79.10
22966;DHT22;11649;48.090;9.754;2023-09-12T11:42:10;26.20;80.10
22966;DHT22;11649;48.090;9.754;2023-09-12T11:44:38;26.20;80.50
22966;DHT22;11649;48.090;9.754;2023-09-12T11:47:05;26.40;81.70
22966;DHT22;11649;48.090;9.754;2023-09-12T11:49:41;26.40;83.40
22966;DHT22;11649;48.090;9.754;2023-09-12T11:54:36;26.40;76.50
22966;DHT22;11649;48.090;9.754;2023-09-12T11:57:04;26.30;78.00
22966;DHT22;11649;48.090;9.754;2023-09-12T11:59:31;26.40;77.70
22966;DHT22;11649;48.090;9.754;2023-09-12T12:01:58;26.50;71.90
22966;DHT22;11649;48.090;9.754;2023-09-12T12:04:25;26.50;73.40
22966;DHT22;11649;48.090;9.754;2023-09-12T12:06:52;26.50;69.00
22966;DHT22;11649;48.090;9.754;2023-09-12T12:09:19;26.70;69.40
22966;DHT22;11649;48.090;9.754;2023-09-12T12:11:47;26.80;67.40
22966;DHT22;11649;48.090;9.754;2023-09-12T12:14:16;26.90;67.70
22966;DHT22;11649;48.090;9.754;2023-09-12T12:16:44;26.90;65.90
22966;DHT22;11649;48.090;9.754;2023-09-12T12:19:12;27.00;61.50
22966;DHT22;11649;48.090;9.754;2023-09-12T12:21:40;27.10;64.10
22966;DHT22;11649;48.090;9.754;2023-09-12T12:24:11;27.10;64.40
22966;DHT22;11649;48.090;9.754;2023-09-12T12:26:46;27.20;64.10
22966;DHT22;11649;48.090;9.754;2023-09-12T12:29:13;27.30;63.50
22966;DHT22;11649;48.090;9.754;2023-09-12T12:31:40;27.40;63.00
22966;DHT22;11649;48.090;9.754;2023-09-12T12:34:07;27.50;65.20
22966;DHT22;11649;48.090;9.754;2023-09-12T12:36:54;27.50;66.70
22966;DHT22;11649;48.090;9.754;2023-09-12T12:39:24;27.40;63.90
22966;DHT22;11649;48.090;9.754;2023-09-12T12:41:55;27.50;64.30
22966;DHT22;11649;48.090;9.754;2023-09-12T12:44:22;27.70;63.60
22966;DHT22;11649;48.090;9.754;2023-09-12T12:46:54;27.50;66.50
22966;DHT22;11649;48.090;9.754;2023-09-12T12:49:21;27.60;64.90
22966;DHT22;11649;48.090;9.754;2023-09-12T12:51:50;27.70;66.40
22966;DHT22;11649;48.090;9.754;2023-09-12T12:54:17;27.90;60.90
22966;DHT22;11649;48.090;9.754;2023-09-12T12:56:48;28.00;60.50
22966;DHT22;11649;48.090;9.754;2023-09-12T12:59:15;28.00;61.20
22966;DHT22;11649;48.090;9.754;2023-09-12T13:01:44;28.00;61.60
22966;DHT22;11649;48.090;9.754;2023-09-12T13:04:11;27.80;62.10
22966;DHT22;11649;48.090;9.754;2023-09-12T13:06:38;27.80;64.80
22966;DHT22;11649;48.090;9.754;2023-09-12T13:09:06;27.80;65.00
22966;DHT22;11649;48.090;9.754;2023-09-12T13:11:34;28.00;66.10
22966;DHT22;11649;48.090;9.754;2023-09-12T13:14:02;28.00;68.60
22966;DHT22;11649;48.090;9.754;2023-09-12T13:16:35;27.90;68.50
22966;DHT22;11649;48.090;9.754;2023-09-12T13:19:03;27.70;66.90
22966;DHT22;11649;48.090;9.754;2023-09-12T13:21:30;27.60;65.50
22966;DHT22;11649;48.090;9.754;2023-09-12T13:23:59;27.90;64.90
22966;DHT22;11649;48.090;9.754;2023-09-12T13:26:28;28.10;63.60
22966;DHT22;11649;48.090;9.754;2023-09-12T13:28:56;28.10;69.10
22966;DHT22;11649;48.090;9.754;2023-09-12T13:31:26;28.20;66.60
22966;DHT22;11649;48.090;9.754;2023-09-12T13:33:53;28.50;63.30
22966;DHT22;11649;48.090;9.754;2023-09-12T13:36:20;28.90;59.40
22966;DHT22;11649;48.090;9.754;2023-09-12T13:38:47;28.80;60.60
22966;DHT22;11649;48.090;9.754;2023-09-12T13:41:15;29.40;58.30
22966;DHT22;11649;48.090;9.754;2023-09-12T13:43:42;30.10;53.50
22966;DHT22;11649;48.090;9.754;2023-09-12T13:46:12;30.80;53.80
22966;DHT22;11649;48.090;9.754;2023-09-12T13:48:39;31.50;52.20
22966;DHT22;11649;48.090;9.754;2023-09-12T13:51:07;32.10;50.70
22966;DHT22;11649;48.090;9.754;2023-09-12T13:53:34;33.20;49.50
22966;DHT22;11649;48.090;9.754;2023-09-12T13:56:01;34.50;45.60
22966;DHT22;11649;48.090;9.754;2023-09-12T13:58:29;36.00;40.20
22966;DHT22;11649;48.090;9.754;2023-09-12T14:01:06;36.10;38.80
22966;DHT22;11649;48.090;9.754;2023-09-12T14:03:33;34.90;40.40
22966;DHT22;11649;48.090;9.754;2023-09-12T14:06:01;34.30;40.10
22966;DHT22;11649;48.090;9.754;2023-09-12T14:08:31;32.80;43.40
22966;DHT22;11649;48.090;9.754;2023-09-12T14:10:58;31.60;44.00
22966;DHT22;11649;48.090;9.754;2023-09-12T14:13:33;30.80;46.60
22966;DHT22;11649;48.090;9.754;2023-09-12T14:16:00;30.40;47.50
22966;DHT22;11649;48.090;9.754;2023-09-12T14:18:27;30.00;48.50
22966;DHT22;11649;48.090;9.754;2023-09-12T14:20:56;29.60;51.00
22966;DHT22;11649;48.090;9.754;2023-09-12T14:23:24;29.20;53.00
22966;DHT22;11649;48.090;9.754;2023-09-12T14:25:52;28.80;54.70
22966;DHT22;11649;48.090;9.754;2023-09-12T14:28:19;28.40;57.60
22966;DHT22;11649;48.090;9.754;2023-09-12T14:30:48;28.10;59.60
22966;DHT22;11649;48.090;9.754;2023-09-12T14:33:18;27.80;61.20
22966;DHT22;11649;48.090;9.754;2023-09-12T14:35:46;27.60;63.70
22966;DHT22;11649;48.090;9.754;2023-09-12T14:38:13;27.30;66.40
22966;DHT22;11649;48.090;9.754;2023-09-12T14:40:40;27.10;67.30
22966;DHT22;11649;48.090;9.754;2023-09-12T14:43:11;26.90;68.30
22966;DHT22;11649;48.090;9.754;2023-09-12T14:45:38;26.60;67.80
22966;DHT22;11649;48.090;9.754;2023-09-12T14:48:06;26.30;68.70
22966;DHT22;11649;48.090;9.754;2023-09-12T14:50:34;26.10;71.70
22966;DHT22;11649;48.090;9.754;2023-09-12T14:53:08;25.90;70.70
22966;DHT22;11649;48.090;9.754;2023-09-12T14:55:35;25.90;73.40
22966;DHT22;11649;48.090;9.754;2023-09-12T14:58:02;25.90;81.30
22966;DHT22;11649;48.090;9.754;2023-09-12T15:00:29;25.80;81.70
22966;DHT22;11649;48.090;9.754;2023-09-12T15:02:57;25.80;82.90
22966;DHT22;11649;48.090;9.754;2023-09-12T15:05:24;25.70;84.90
22966;DHT22;11649;48.090;9.754;2023-09-12T15:07:51;25.60;84.00
22966;DHT22;11649;48.090;9.754;2023-09-12T15:10:18;25.60;83.20
22966;DHT22;11649;48.090;9.754;2023-09-12T15:12:45;25.60;82.10
22966;DHT22;11649;48.090;9.754;2023-09-12T15:15:12;25.60;82.50
22966;DHT22;11649;48.090;9.754;2023-09-12T15:17:38;25.60;82.80
22966;DHT22;11649;48.090;9.754;2023-09-12T15:20:07;25.70;83.60
22966;DHT22;11649;48.090;9.754;2023-09-12T15:22:34;25.70;84.50
22966;DHT22;11649;48.090;9.754;2023-09-12T15:25:02;25.70;86.20
22966;DHT22;11649;48.090;9.754;2023-09-12T15:27:29;25.70;85.80
22966;DHT22;11649;48.090;9.754;2023-09-12T15:29:56;25.70;88.90
22966;DHT22;11649;48.090;9.754;2023-09-12T15:32:23;25.70;88.50
22966;DHT22;11649;48.090;9.754;2023-09-12T15:34:50;25.70;89.40
22966;DHT22;11649;48.090;9.754;2023-09-12T15:37:17;25.50;94.20
22966;DHT22;11649;48.090;9.754;2023-09-12T15:40:02;25.40;96.80
22966;DHT22;11649;48.090;9.754;2023-09-12T15:42:29;25.30;91.20
22966;DHT22;11649;48.090;9.754;2023-09-12T15:45:04;25.30;88.10
22966;DHT22;11649;48.090;9.754;2023-09-12T15:47:31;25.30;84.70
22966;DHT22;11649;48.090;9.754;2023-09-12T15:49:59;25.30;81.80
22966;DHT22;11649;48.090;9.754;2023-09-12T15:52:26;25.20;78.10
22966;DHT22;11649;48.090;9.754;2023-09-12T15:54:52;25.40;77.80
22966;DHT22;11649;48.090;9.754;2023-09-12T15:57:21;25.40;80.10